Hauptseite
METAR-TAF:

METAR-TAF

Flughäfen :

United States Naval Academy

Annapolis, Maryland, Vereinigte Staaten

Breite: 38-59-29N, Länge: 076-29-00W, Höhe: 2 m

Beobachtung

Neuester Wetterbericht von vor 25 Minuten, um 06:38 UTC
Windstille
Temperatur 9°C
Luftfeuchtigkeit 93%
Luftdruck 1011 hPa
Sichtweite: 2.0 km
Leicht bewölkt in der Höhe von 500 ft
Geschlossene Wolkendecke in der Höhe von 1700 ft
feuchter Dunst

METAR: KNAK 260638Z AUTO 00000KT 1 1/4SM BR FEW005 OVC017 09/08 A2986 RMK AO2 T00890083

Zeit: 02:03 (07:03 UTC)


TAF: fehlend

Wetterbeobachtungen und Prognosen von mehr als 4000 Flughäfen (METAR und TAF Bericht).

Die verfügbaren Stationen werden durch gelbe und rote Markierungen auf der Karte dargestellt.

Führen Sie die Maus auf sie, um den Namen der Station zu sehen.

Darauf klicken, um die Beobachtung von Wetterbeobachtungen und Prognosen zu sehen.

Um die Karte zu ändern : klicken Sie auf den grünen Tasten mit einem schwarzen Kreuz Zum Vergrößern, auf den grünen Button mit einem Gedankenstrich zu verkleinern, oder auf die grünen Pfeile für benachbarte Karten.


METAR-TAF: